Terminal Aerodrome Forecast
Issued by NWS

Home | Current Version | Previous Version | Graphics & Text | Print | Product List | Glossary On
Versions: 1 2 3 4 5 6 7 8 9 10 11 12 13 14 15 16 17 18
000
FTUS43 KGRB 172300
TAFCWA
TAF
KCWA 172322Z 1800/1824 29007KT P6SM BKN012
     FM180300 31004KT P6SM FEW030 FEW250
     FM180800 31003KT 5SM BR BKN100
      TEMPO 1810/1814 2SM BR SCT004
     FM181500 33006KT P6SM SCT022 BKN100
     FM182100 07005KT P6SM SCT030 BKN120
      AMD LTD TO CLD VIS AND WIND 1803/1811=

USA.gov is the U.S. government's official web portal to all federal, state and local government web resources and services.